createdAt,value
2022-08-30T00:00:39.226Z,8.10
2022-08-30T00:03:37.985Z,9.48
2022-08-30T00:06:30.139Z,12.25
2022-08-30T00:09:20.606Z,10.60
2022-08-30T00:12:10.802Z,9.85
2022-08-30T00:15:00.936Z,7.63
2022-08-30T00:17:51.260Z,9.45
2022-08-30T00:20:42.753Z,10.65
2022-08-30T00:23:33.093Z,7.82
2022-08-30T00:26:23.122Z,8.70
2022-08-30T00:29:13.968Z,12.20
2022-08-30T00:32:05.531Z,10.15
2022-08-30T00:34:56.003Z,9.90
2022-08-30T00:37:47.391Z,8.38
2022-08-30T00:40:44.298Z,14.27
2022-08-30T00:43:36.837Z,8.73
2022-08-30T00:46:28.002Z,9.73
2022-08-30T00:49:18.505Z,9.25
2022-08-30T00:52:09.187Z,9.88
2022-08-30T00:55:02.145Z,12.15
2022-08-30T00:57:56.409Z,13.02
2022-08-30T01:00:49.319Z,10.63
2022-08-30T01:03:41.497Z,10.77
2022-08-30T01:06:34.038Z,9.52
2022-08-30T01:09:24.333Z,11.65
2022-08-30T01:12:14.332Z,10.38
2022-08-30T01:15:08.872Z,9.70
2022-08-30T01:17:59.368Z,11.43
2022-08-30T01:20:57.286Z,12.02
2022-08-30T01:23:51.661Z,10.05
2022-08-30T01:26:42.767Z,10.65
2022-08-30T01:29:34.051Z,9.35
2022-08-30T01:32:29.482Z,10.23
2022-08-30T01:35:20.657Z,10.00
2022-08-30T01:38:12.692Z,11.43
2022-08-30T01:41:17.298Z,8.88
2022-08-30T01:44:10.346Z,10.23
2022-08-30T01:47:00.755Z,8.88
2022-08-30T01:49:51.398Z,9.98
2022-08-30T01:52:42.835Z,13.57
2022-08-30T01:55:33.222Z,16.35
2022-08-30T01:58:23.560Z,12.48
2022-08-30T02:01:16.847Z,14.18
2022-08-30T02:04:09.551Z,10.30
2022-08-30T02:07:00.337Z,11.32
2022-08-30T02:09:51.487Z,11.32
2022-08-30T02:12:41.949Z,10.93
2022-08-30T02:15:41.414Z,11.90
2022-08-30T02:18:33.625Z,13.98
2022-08-30T02:21:27.604Z,14.73
2022-08-30T02:24:18.107Z,9.35
2022-08-30T02:27:08.561Z,10.43
2022-08-30T02:29:58.827Z,8.93
2022-08-30T02:32:49.120Z,10.80
2022-08-30T02:35:39.372Z,12.05
2022-08-30T02:38:29.580Z,10.60
2022-08-30T02:41:20.622Z,10.68
2022-08-30T02:44:11.560Z,12.30
2022-08-30T02:47:01.686Z,12.88
2022-08-30T02:49:52.295Z,11.43
2022-08-30T02:52:42.702Z,11.85
2022-08-30T02:55:36.106Z,13.52
2022-08-30T02:58:26.316Z,12.38
2022-08-30T03:01:18.401Z,11.00
2022-08-30T03:04:09.788Z,15.45
2022-08-30T03:07:00.343Z,11.02
2022-08-30T03:09:50.876Z,12.73
2022-08-30T03:12:41.772Z,13.43
2022-08-30T03:15:32.286Z,18.13
2022-08-30T03:18:23.685Z,17.65
2022-08-30T03:21:16.351Z,12.50
2022-08-30T03:24:07.180Z,14.32
2022-08-30T03:26:57.945Z,10.95
2022-08-30T03:29:48.256Z,10.48
2022-08-30T03:32:39.234Z,13.13
2022-08-30T03:35:29.533Z,14.20
2022-08-30T03:38:24.259Z,13.20
2022-08-30T03:41:14.945Z,12.05
2022-08-30T03:44:05.668Z,11.00
2022-08-30T03:46:55.730Z,11.68
2022-08-30T03:49:46.454Z,14.88
2022-08-30T03:52:36.645Z,16.27
2022-08-30T03:55:28.355Z,14.95
2022-08-30T03:58:19.290Z,18.35
2022-08-30T04:01:09.873Z,13.50
2022-08-30T04:04:00.279Z,16.08
2022-08-30T04:06:50.700Z,13.68
2022-08-30T04:09:41.810Z,12.27
2022-08-30T04:12:31.838Z,15.60
2022-08-30T04:15:22.526Z,10.45
2022-08-30T04:18:13.003Z,13.48
2022-08-30T04:21:04.405Z,13.65
2022-08-30T04:23:54.558Z,13.10
2022-08-30T04:26:44.937Z,12.80
2022-08-30T04:29:35.619Z,17.48
2022-08-30T04:32:26.004Z,13.35
2022-08-30T04:35:16.080Z,16.88
2022-08-30T04:38:06.213Z,15.38
2022-08-30T04:40:56.850Z,15.05
2022-08-30T04:43:50.610Z,13.90
2022-08-30T04:46:44.679Z,15.07
2022-08-30T04:49:35.301Z,14.50
2022-08-30T04:52:25.904Z,13.77
2022-08-30T04:55:19.982Z,14.48
2022-08-30T04:58:11.514Z,13.70
2022-08-30T05:01:01.921Z,15.30
2022-08-30T05:03:54.513Z,16.85
2022-08-30T05:06:45.296Z,17.38
2022-08-30T05:09:36.783Z,16.10
2022-08-30T05:12:27.723Z,16.75
2022-08-30T05:15:18.393Z,15.82
2022-08-30T05:18:14.049Z,14.73
2022-08-30T05:21:09.145Z,11.88
2022-08-30T05:24:00.737Z,14.48
2022-08-30T05:26:51.605Z,16.85
2022-08-30T05:29:42.519Z,16.02
2022-08-30T05:32:33.215Z,15.63
2022-08-30T05:35:25.707Z,15.52
2022-08-30T05:38:16.647Z,16.92
2022-08-30T05:41:10.875Z,19.58
2022-08-30T05:44:11.904Z,13.88
2022-08-30T05:47:01.796Z,13.88
2022-08-30T05:49:52.303Z,14.40
2022-08-30T05:52:44.683Z,18.52
2022-08-30T05:55:35.624Z,17.00
2022-08-30T05:58:25.796Z,18.17
2022-08-30T06:01:29.069Z,18.30
2022-08-30T06:04:19.835Z,18.85
2022-08-30T06:07:12.924Z,23.85
2022-08-30T06:10:06.738Z,22.58
2022-08-30T06:12:57.553Z,23.52
2022-08-30T06:15:48.228Z,21.23
2022-08-30T06:18:38.636Z,16.95
2022-08-30T06:21:34.565Z,18.65
2022-08-30T06:24:35.700Z,24.67
2022-08-30T06:27:31.687Z,24.52
2022-08-30T06:30:21.844Z,21.75
2022-08-30T06:33:12.213Z,23.98
2022-08-30T06:36:07.512Z,18.30
2022-08-30T06:38:59.081Z,21.05
2022-08-30T06:41:50.189Z,21.80
2022-08-30T06:45:11.140Z,22.92
2022-08-30T06:48:02.188Z,29.92
2022-08-30T06:50:55.724Z,23.00
2022-08-30T06:56:37.147Z,20.88
2022-08-30T06:59:27.646Z,27.65
2022-08-30T07:02:17.879Z,20.13
2022-08-30T07:05:14.160Z,26.60
2022-08-30T07:08:06.798Z,19.15
2022-08-30T07:10:57.666Z,18.25
2022-08-30T07:13:51.700Z,18.40
2022-08-30T07:16:43.489Z,15.48
2022-08-30T07:19:33.790Z,23.27
2022-08-30T07:22:24.507Z,22.65
2022-08-30T07:25:16.024Z,17.88
2022-08-30T07:28:07.014Z,18.58
2022-08-30T07:30:57.409Z,15.77
2022-08-30T07:33:48.201Z,21.55
2022-08-30T07:36:39.368Z,15.52
2022-08-30T07:39:29.627Z,18.38
2022-08-30T07:42:22.036Z,14.65
2022-08-30T07:45:13.195Z,16.23
2022-08-30T07:48:04.238Z,14.27
2022-08-30T07:50:57.686Z,15.05
2022-08-30T07:53:50.053Z,16.10
2022-08-30T07:56:40.122Z,15.95
2022-08-30T07:59:33.037Z,12.65
2022-08-30T08:02:27.260Z,12.75
2022-08-30T08:05:20.986Z,13.20
2022-08-30T08:08:13.989Z,13.90
2022-08-30T08:11:19.529Z,15.48
2022-08-30T08:14:10.028Z,13.80
2022-08-30T08:17:01.045Z,9.95
2022-08-30T08:19:51.203Z,11.18
2022-08-30T08:22:41.388Z,12.20
2022-08-30T08:25:31.801Z,14.32
2022-08-30T08:28:22.728Z,14.88
2022-08-30T08:31:29.909Z,17.98
2022-08-30T08:34:24.291Z,11.05
2022-08-30T08:37:14.765Z,11.13
2022-08-30T08:40:07.047Z,13.65
2022-08-30T08:43:14.844Z,12.48
2022-08-30T08:46:41.013Z,16.77
2022-08-30T08:49:37.826Z,15.40
2022-08-30T08:53:01.775Z,11.13
2022-08-30T08:55:53.452Z,11.93
2022-08-30T08:58:52.845Z,15.68
2022-08-30T09:01:42.966Z,17.08
2022-08-30T09:04:40.550Z,14.10
2022-08-30T09:07:37.075Z,8.77
2022-08-30T09:10:47.209Z,9.57
2022-08-30T09:13:38.028Z,12.80
2022-08-30T09:16:58.329Z,9.45
2022-08-30T09:19:52.689Z,10.35
2022-08-30T09:22:46.525Z,13.90
2022-08-30T09:25:41.933Z,20.48
2022-08-30T09:28:35.333Z,11.25
2022-08-30T09:31:28.839Z,11.50
2022-08-30T09:34:21.644Z,9.50
2022-08-30T09:37:26.019Z,8.93
2022-08-30T09:40:36.509Z,12.48
2022-08-30T09:43:28.431Z,11.05
2022-08-30T09:46:24.473Z,8.20
2022-08-30T09:49:38.797Z,6.75
2022-08-30T09:52:56.277Z,8.88
2022-08-30T09:56:05.546Z,6.22
2022-08-30T09:59:08.160Z,5.53
2022-08-30T10:02:24.071Z,6.95
2022-08-30T10:05:23.476Z,4.97
2022-08-30T10:08:25.323Z,7.03
2022-08-30T10:12:03.825Z,6.57
2022-08-30T10:15:15.003Z,4.72
2022-08-30T10:18:26.768Z,4.85
2022-08-30T10:21:25.484Z,6.47
2022-08-30T10:24:28.185Z,7.90
2022-08-30T10:27:29.164Z,5.22
2022-08-30T10:30:19.702Z,9.82
2022-08-30T10:33:17.274Z,4.85
2022-08-30T10:36:11.500Z,6.95
2022-08-30T10:39:03.275Z,7.25
2022-08-30T10:42:35.631Z,4.57
2022-08-30T10:45:33.015Z,5.65
2022-08-30T10:48:33.636Z,8.20
2022-08-30T10:51:36.680Z,9.32
2022-08-30T10:54:37.293Z,6.27
2022-08-30T10:57:27.772Z,6.03
2022-08-30T11:00:30.393Z,6.55
2022-08-30T11:03:39.714Z,4.22
2022-08-30T11:07:04.973Z,5.65
2022-08-30T11:10:31.669Z,6.65
2022-08-30T11:13:26.390Z,15.18
2022-08-30T11:16:19.104Z,8.00
2022-08-30T11:19:49.630Z,5.72
2022-08-30T11:23:01.934Z,6.13
2022-08-30T11:25:57.933Z,6.85
2022-08-30T11:28:48.538Z,6.55
2022-08-30T11:31:40.784Z,4.78
2022-08-30T11:34:46.591Z,6.70
2022-08-30T11:37:40.476Z,7.32
2022-08-30T11:40:50.028Z,5.32
2022-08-30T11:43:43.263Z,10.18
2022-08-30T11:46:33.547Z,8.88
2022-08-30T11:49:46.141Z,6.15
2022-08-30T11:53:11.302Z,7.68
2022-08-30T11:56:14.157Z,7.43
2022-08-30T11:59:17.958Z,4.97
2022-08-30T12:02:08.987Z,6.75
2022-08-30T12:04:59.619Z,4.45
2022-08-30T12:08:00.690Z,5.70
2022-08-30T12:11:03.157Z,4.97
2022-08-30T12:13:55.947Z,5.15
2022-08-30T12:17:06.992Z,7.85
2022-08-30T12:19:59.895Z,4.57
2022-08-30T12:22:51.445Z,5.22
2022-08-30T12:25:42.712Z,4.60
2022-08-30T12:28:33.702Z,6.47
2022-08-30T12:31:26.707Z,6.22
2022-08-30T12:34:21.721Z,4.88
2022-08-30T12:37:23.259Z,6.72
2022-08-30T12:40:18.701Z,6.07
2022-08-30T12:43:40.623Z,6.53
2022-08-30T12:46:31.848Z,5.13
2022-08-30T12:49:25.837Z,6.20
2022-08-30T12:55:25.221Z,4.90
2022-08-30T12:58:16.033Z,9.10
2022-08-30T13:01:27.091Z,9.60
2022-08-30T13:04:23.388Z,8.88
2022-08-30T13:07:35.476Z,5.40
2022-08-30T13:10:26.071Z,6.07
2022-08-30T13:13:31.622Z,8.07
2022-08-30T13:16:44.556Z,6.38
2022-08-30T13:19:57.245Z,7.13
2022-08-30T13:23:11.092Z,6.80
2022-08-30T13:26:01.550Z,10.85
2022-08-30T13:28:55.572Z,8.88
2022-08-30T13:31:46.456Z,6.07
2022-08-30T13:37:50.733Z,7.65
2022-08-30T13:40:41.655Z,5.47
2022-08-30T13:44:08.905Z,6.63
2022-08-30T13:46:51.024Z,9.85
2022-08-30T13:49:45.230Z,5.38
2022-08-30T13:52:35.644Z,5.78
2022-08-30T13:55:26.549Z,5.38
2022-08-30T13:58:18.523Z,7.88
2022-08-30T14:01:09.295Z,5.32
2022-08-30T14:04:15.737Z,6.32
2022-08-30T14:07:20.215Z,6.70
2022-08-30T14:13:21.305Z,10.57
2022-08-30T14:16:28.046Z,11.13
2022-08-30T14:19:18.978Z,7.50
2022-08-30T14:22:09.481Z,6.53
2022-08-30T14:25:01.443Z,11.95
2022-08-30T14:27:51.660Z,9.00
2022-08-30T14:30:41.618Z,6.75
2022-08-30T14:33:33.175Z,6.80
2022-08-30T14:36:28.148Z,9.60
2022-08-30T14:39:22.757Z,5.38
2022-08-30T14:45:05.389Z,7.97
2022-08-30T14:48:00.930Z,7.03
2022-08-30T14:51:12.320Z,5.53
2022-08-30T14:54:02.581Z,5.75
2022-08-30T14:56:55.330Z,6.72
2022-08-30T14:59:47.406Z,4.70
2022-08-30T15:02:38.144Z,5.88
2022-08-30T15:05:28.986Z,5.65
2022-08-30T15:08:19.754Z,4.40
2022-08-30T15:11:22.377Z,16.17
2022-08-30T15:14:16.090Z,11.95
2022-08-30T15:17:07.127Z,7.03
2022-08-30T15:19:57.767Z,4.93
2022-08-30T15:22:49.109Z,5.55
2022-08-30T15:25:39.500Z,6.95
2022-08-30T15:28:33.036Z,9.95
2022-08-30T15:31:28.626Z,6.30
2022-08-30T15:34:21.559Z,8.50
2022-08-30T15:37:22.589Z,6.70
2022-08-30T15:40:12.993Z,6.18
2022-08-30T15:43:05.100Z,7.97
2022-08-30T15:45:55.757Z,5.85
2022-08-30T15:48:46.723Z,9.35
2022-08-30T15:51:41.746Z,6.25
2022-08-30T15:54:32.174Z,6.53
2022-08-30T15:57:22.347Z,8.63
2022-08-30T16:00:13.333Z,5.18
2022-08-30T16:03:03.360Z,5.90
2022-08-30T16:05:53.565Z,9.20
2022-08-30T16:08:44.557Z,7.85
2022-08-30T16:11:37.799Z,6.22
2022-08-30T16:14:28.028Z,7.25
2022-08-30T16:17:18.366Z,8.48
2022-08-30T16:20:09.805Z,7.38
2022-08-30T16:23:01.877Z,6.47
2022-08-30T16:25:52.321Z,6.20
2022-08-30T16:28:46.385Z,8.15
2022-08-30T16:31:37.220Z,7.80
2022-08-30T16:34:27.692Z,5.60
2022-08-30T16:37:17.800Z,12.07
2022-08-30T16:40:09.651Z,9.15
2022-08-30T16:42:59.962Z,5.18
2022-08-30T16:45:50.477Z,5.63
2022-08-30T16:48:43.046Z,7.97
2022-08-30T16:51:34.695Z,6.72
2022-08-30T16:54:25.082Z,6.45
2022-08-30T16:57:15.758Z,8.35
2022-08-30T17:00:12.979Z,8.98
2022-08-30T17:03:04.553Z,5.15
2022-08-30T17:05:57.340Z,7.03
2022-08-30T17:08:47.575Z,6.95
2022-08-30T17:11:40.221Z,7.68
2022-08-30T17:14:30.817Z,8.95
2022-08-30T17:17:22.145Z,6.85
2022-08-30T17:20:12.719Z,6.05
2022-08-30T17:23:02.881Z,4.78
2022-08-30T17:25:53.245Z,11.50
2022-08-30T17:28:43.886Z,5.85
2022-08-30T17:31:35.798Z,5.22
2022-08-30T17:34:28.060Z,6.53
2022-08-30T17:37:20.370Z,5.05
2022-08-30T17:40:14.637Z,3.85
2022-08-30T17:43:04.840Z,7.25
2022-08-30T17:46:03.738Z,5.60
2022-08-30T17:48:57.788Z,10.20
2022-08-30T17:51:56.143Z,8.07
2022-08-30T17:54:46.988Z,6.35
2022-08-30T17:57:41.683Z,5.43
2022-08-30T18:00:31.545Z,7.20
2022-08-30T18:03:21.964Z,4.55
2022-08-30T18:06:13.355Z,5.57
2022-08-30T18:09:06.586Z,9.50
2022-08-30T18:11:56.956Z,8.68
2022-08-30T18:14:47.382Z,5.43
2022-08-30T18:17:44.279Z,8.00
2022-08-30T18:20:34.688Z,5.18
2022-08-30T18:23:25.036Z,7.05
2022-08-30T18:26:15.701Z,4.15
2022-08-30T18:29:07.662Z,6.40
2022-08-30T18:32:02.383Z,7.95
2022-08-30T18:34:52.802Z,6.90
2022-08-30T18:37:43.225Z,6.22
2022-08-30T18:40:33.586Z,10.63
2022-08-30T18:43:30.766Z,3.72
2022-08-30T18:46:21.497Z,6.60
2022-08-30T18:49:16.354Z,4.25
2022-08-30T18:52:08.954Z,7.32
2022-08-30T18:54:59.092Z,9.65
2022-08-30T18:57:49.870Z,4.57
2022-08-30T19:00:41.518Z,6.35
2022-08-30T19:03:34.703Z,7.13
2022-08-30T19:06:24.816Z,8.27
2022-08-30T19:09:15.615Z,5.18
2022-08-30T19:12:09.422Z,6.40
2022-08-30T19:15:01.892Z,10.15
2022-08-30T19:18:02.225Z,8.00
2022-08-30T19:21:13.463Z,7.30
2022-08-30T19:24:05.593Z,6.57
2022-08-30T19:26:56.025Z,7.63
2022-08-30T19:29:46.370Z,5.38
2022-08-30T19:32:43.360Z,5.00
2022-08-30T19:38:27.739Z,8.15
2022-08-30T19:41:17.515Z,6.72
2022-08-30T19:44:07.936Z,6.45
2022-08-30T19:46:59.864Z,7.28
2022-08-30T19:49:49.849Z,5.35
2022-08-30T19:52:42.272Z,4.25
2022-08-30T19:55:32.337Z,7.13
2022-08-30T19:58:22.252Z,7.55
2022-08-30T20:01:13.166Z,8.52
2022-08-30T20:04:12.569Z,7.38
2022-08-30T20:07:02.970Z,6.78
2022-08-30T20:09:52.994Z,7.13
2022-08-30T20:12:45.232Z,4.03
2022-08-30T20:15:35.896Z,5.72
2022-08-30T20:18:27.108Z,4.63
2022-08-30T20:21:16.982Z,7.15
2022-08-30T20:24:09.473Z,8.40
2022-08-30T20:26:59.605Z,7.03
2022-08-30T20:29:49.376Z,7.15
2022-08-30T20:32:39.360Z,5.00
2022-08-30T20:35:29.497Z,6.95
2022-08-30T20:38:21.264Z,8.13
2022-08-30T20:41:16.611Z,5.50
2022-08-30T20:44:06.774Z,6.97
2022-08-30T20:47:03.614Z,4.05
2022-08-30T20:49:54.315Z,6.03
2022-08-30T20:52:46.557Z,4.38
2022-08-30T20:55:44.428Z,6.40
2022-08-30T20:58:34.441Z,7.43
2022-08-30T21:01:24.561Z,7.68
2022-08-30T21:04:14.702Z,5.38
2022-08-30T21:07:05.025Z,6.75
2022-08-30T21:09:56.712Z,5.50
2022-08-30T21:12:46.966Z,6.25
2022-08-30T21:15:38.269Z,6.90
2022-08-30T21:18:32.563Z,5.07
2022-08-30T21:21:25.499Z,6.60
2022-08-30T21:24:15.659Z,10.03
2022-08-30T21:27:05.851Z,6.72
2022-08-30T21:29:57.866Z,10.68
2022-08-30T21:32:47.994Z,7.15
2022-08-30T21:35:57.007Z,7.28
2022-08-30T21:38:47.124Z,7.00
2022-08-30T21:41:38.484Z,5.45
2022-08-30T21:44:28.453Z,7.55
2022-08-30T21:47:19.906Z,6.70
2022-08-30T21:50:14.117Z,5.22
2022-08-30T21:53:05.745Z,6.40
2022-08-30T21:55:55.805Z,9.10
2022-08-30T21:58:46.361Z,8.07
2022-08-30T22:01:37.563Z,7.88
2022-08-30T22:04:29.385Z,6.55
2022-08-30T22:07:19.262Z,8.48
2022-08-30T22:10:11.992Z,5.82
2022-08-30T22:13:02.236Z,5.80
2022-08-30T22:15:53.599Z,7.20
2022-08-30T22:18:44.859Z,7.45
2022-08-30T22:21:39.091Z,7.13
2022-08-30T22:27:23.078Z,5.15
2022-08-30T22:30:13.302Z,10.23
2022-08-30T22:33:03.548Z,9.48
2022-08-30T22:35:54.346Z,8.23
2022-08-30T22:38:44.679Z,10.60
2022-08-30T22:41:36.346Z,4.25
2022-08-30T22:44:26.742Z,6.72
2022-08-30T22:47:16.955Z,8.13
2022-08-30T22:50:07.136Z,8.10
2022-08-30T22:52:57.364Z,7.85
2022-08-30T22:55:47.381Z,6.80
2022-08-30T22:58:37.409Z,6.07
2022-08-30T23:01:30.640Z,4.28
2022-08-30T23:04:20.764Z,8.60
2022-08-30T23:07:12.185Z,5.18
2022-08-30T23:10:04.531Z,6.07
2022-08-30T23:12:55.386Z,7.07
2022-08-30T23:15:45.255Z,6.88
2022-08-30T23:18:36.686Z,5.85
2022-08-30T23:21:29.137Z,9.50
2022-08-30T23:24:38.193Z,9.07
2022-08-30T23:27:47.267Z,5.72
2022-08-30T23:30:56.462Z,13.55
2022-08-30T23:34:05.381Z,10.23
2022-08-30T23:37:19.195Z,7.40
2022-08-30T23:40:29.063Z,9.32
2022-08-30T23:43:37.961Z,5.35
2022-08-30T23:46:46.805Z,10.82
2022-08-30T23:49:55.629Z,8.13
2022-08-30T23:53:04.408Z,6.78
2022-08-30T23:56:13.360Z,9.25
2022-08-30T23:59:22.255Z,7.47
